createdAt,value
2023-05-09T00:01:35.470Z,7.90
2023-05-09T00:04:38.913Z,7.88
2023-05-09T00:07:41.530Z,7.87
2023-05-09T00:10:44.367Z,7.78
2023-05-09T00:13:47.474Z,7.70
2023-05-09T00:16:50.808Z,7.72
2023-05-09T00:19:54.074Z,7.71
2023-05-09T00:22:57.216Z,7.74
2023-05-09T00:26:00.204Z,7.68
2023-05-09T00:29:04.184Z,7.52
2023-05-09T00:32:07.556Z,7.70
2023-05-09T00:35:10.927Z,7.67
2023-05-09T00:38:13.932Z,7.29
2023-05-09T00:41:17.384Z,7.47
2023-05-09T00:44:19.985Z,7.47
2023-05-09T00:47:24.171Z,7.27
2023-05-09T00:50:27.669Z,7.42
2023-05-09T00:53:31.149Z,7.45
2023-05-09T00:56:34.084Z,7.39
2023-05-09T00:59:37.332Z,7.30
2023-05-09T01:02:46.733Z,7.27
2023-05-09T01:06:05.912Z,7.11
2023-05-09T01:09:19.858Z,7.16
2023-05-09T01:12:35.301Z,7.13
2023-05-09T01:15:53.060Z,7.13
2023-05-09T01:19:20.635Z,7.14
2023-05-09T01:22:30.461Z,7.13
2023-05-09T01:25:54.475Z,7.02
2023-05-09T01:29:30.867Z,7.02
2023-05-09T01:32:37.211Z,7.03
2023-05-09T01:35:43.517Z,7.00
2023-05-09T01:38:50.534Z,6.97
2023-05-09T01:41:56.894Z,6.98
2023-05-09T01:45:00.551Z,7.00
2023-05-09T01:48:04.570Z,6.99
2023-05-09T01:51:11.011Z,6.93
2023-05-09T01:54:15.044Z,6.95
2023-05-09T01:57:19.348Z,6.99
2023-05-09T02:00:23.983Z,7.08
2023-05-09T02:03:28.665Z,6.92
2023-05-09T02:06:33.124Z,6.88
2023-05-09T02:09:36.071Z,6.78
2023-05-09T02:12:40.249Z,6.73
2023-05-09T02:15:44.681Z,6.81
2023-05-09T02:18:52.362Z,6.86
2023-05-09T02:21:54.975Z,6.86
2023-05-09T02:24:57.825Z,6.80
2023-05-09T02:28:01.919Z,6.78
2023-05-09T02:31:08.300Z,6.58
2023-05-09T02:34:12.252Z,6.65
2023-05-09T02:37:16.533Z,6.64
2023-05-09T02:40:20.662Z,6.60
2023-05-09T02:43:23.565Z,6.62
2023-05-09T02:46:26.673Z,6.59
2023-05-09T02:49:32.525Z,6.59
2023-05-09T02:52:36.534Z,6.53
2023-05-09T02:55:39.541Z,6.62
2023-05-09T02:58:44.355Z,6.56
2023-05-09T03:01:47.754Z,6.60
2023-05-09T03:04:54.728Z,6.61
2023-05-09T03:07:57.474Z,6.59
2023-05-09T03:10:59.971Z,6.62
2023-05-09T03:14:04.194Z,6.57
2023-05-09T03:17:08.481Z,6.56
2023-05-09T03:20:12.875Z,6.63
2023-05-09T03:23:17.669Z,6.63
2023-05-09T03:26:21.695Z,6.67
2023-05-09T03:29:25.453Z,6.78
2023-05-09T03:32:30.087Z,6.72
2023-05-09T03:35:33.716Z,6.68
2023-05-09T03:38:39.319Z,6.73
2023-05-09T03:41:43.638Z,6.71
2023-05-09T03:44:46.750Z,6.93
2023-05-09T03:47:49.760Z,6.88
2023-05-09T03:50:53.002Z,6.92
2023-05-09T03:53:56.386Z,6.91
2023-05-09T03:57:01.732Z,7.02
2023-05-09T04:00:06.998Z,7.10
2023-05-09T04:03:17.615Z,6.95
2023-05-09T04:06:21.219Z,7.14
2023-05-09T04:09:24.101Z,7.41
2023-05-09T04:12:27.834Z,7.40
2023-05-09T04:15:30.825Z,7.60
2023-05-09T04:18:34.895Z,7.67
2023-05-09T04:21:40.824Z,7.74
2023-05-09T04:24:45.995Z,7.66
2023-05-09T04:27:49.622Z,7.95
2023-05-09T04:30:53.108Z,8.23
2023-05-09T04:34:01.781Z,8.21
2023-05-09T04:37:09.246Z,8.46
2023-05-09T04:40:17.020Z,8.43
2023-05-09T04:43:22.014Z,8.52
2023-05-09T04:46:27.210Z,8.52
2023-05-09T04:49:30.507Z,8.87
2023-05-09T04:52:33.194Z,8.79
2023-05-09T04:55:37.786Z,9.03
2023-05-09T04:58:50.332Z,8.93
2023-05-09T05:01:56.171Z,9.00
2023-05-09T05:05:10.938Z,9.46
2023-05-09T05:08:20.104Z,9.40
2023-05-09T05:11:29.827Z,9.62
2023-05-09T05:14:33.646Z,9.81
2023-05-09T05:17:36.979Z,10.21
2023-05-09T05:20:42.111Z,10.25
2023-05-09T05:23:46.024Z,10.21
2023-05-09T05:26:49.654Z,10.27
2023-05-09T05:30:00.654Z,10.32
2023-05-09T05:33:11.538Z,10.40
2023-05-09T05:36:15.186Z,10.83
2023-05-09T05:39:18.436Z,11.10
2023-05-09T05:42:21.107Z,12.06
2023-05-09T05:45:26.540Z,12.99
2023-05-09T05:48:40.905Z,13.70
2023-05-09T05:51:44.088Z,13.33
2023-05-09T05:54:56.421Z,12.53
2023-05-09T05:58:03.093Z,13.84
2023-05-09T06:04:33.979Z,14.01
2023-05-09T06:07:37.489Z,15.16
2023-05-09T06:10:42.505Z,15.64
2023-05-09T06:13:46.572Z,14.50
2023-05-09T06:16:50.661Z,15.16
2023-05-09T06:19:54.037Z,15.34
2023-05-09T06:22:57.137Z,15.25
2023-05-09T06:26:00.853Z,14.59
2023-05-09T06:29:06.546Z,14.94
2023-05-09T06:32:10.460Z,15.57
2023-05-09T06:35:15.866Z,14.83
2023-05-09T06:38:19.463Z,14.27
2023-05-09T06:41:23.775Z,15.18
2023-05-09T06:44:28.233Z,15.16
2023-05-09T06:47:32.792Z,14.63
2023-05-09T06:50:36.010Z,14.91
2023-05-09T06:53:39.376Z,14.59
2023-05-09T06:56:42.670Z,14.65
2023-05-09T06:59:48.704Z,14.93
2023-05-09T07:03:02.500Z,14.95
2023-05-09T07:06:12.837Z,14.98
2023-05-09T07:09:28.544Z,14.76
2023-05-09T07:12:33.485Z,15.51
2023-05-09T07:15:41.831Z,15.75
2023-05-09T07:18:52.975Z,14.95
2023-05-09T07:21:58.641Z,14.94
2023-05-09T07:25:04.468Z,15.15
2023-05-09T07:28:15.537Z,15.25
2023-05-09T07:31:19.786Z,15.40
2023-05-09T07:34:26.279Z,16.00
2023-05-09T07:37:31.681Z,15.78
2023-05-09T07:40:38.575Z,15.95
2023-05-09T07:43:47.864Z,16.86
2023-05-09T07:46:59.303Z,16.16
2023-05-09T07:50:09.414Z,16.06
2023-05-09T07:53:13.046Z,16.30
2023-05-09T07:56:16.556Z,16.28
2023-05-09T07:59:22.915Z,16.09
2023-05-09T08:02:28.015Z,16.62
2023-05-09T08:05:37.653Z,16.83
2023-05-09T08:08:40.700Z,16.45
2023-05-09T08:11:46.684Z,16.53
2023-05-09T08:14:51.196Z,16.26
2023-05-09T08:17:58.843Z,17.17
2023-05-09T08:21:03.025Z,17.04
2023-05-09T08:24:09.814Z,18.05
2023-05-09T08:27:14.081Z,17.94
2023-05-09T08:30:24.201Z,17.19
2023-05-09T08:33:30.198Z,17.32
2023-05-09T08:36:34.108Z,17.38
2023-05-09T08:39:37.005Z,18.25
2023-05-09T08:42:45.951Z,18.50
2023-05-09T08:46:00.405Z,17.48
2023-05-09T08:49:07.364Z,18.59
2023-05-09T08:52:12.184Z,18.44
2023-05-09T08:55:15.581Z,18.52
2023-05-09T08:58:26.280Z,17.63
2023-05-09T09:01:36.024Z,18.13
2023-05-09T09:04:40.322Z,17.94
2023-05-09T09:07:45.017Z,18.85
2023-05-09T09:10:49.168Z,19.84
2023-05-09T09:14:16.905Z,18.74
2023-05-09T09:17:30.980Z,18.30
2023-05-09T09:20:37.315Z,18.22
2023-05-09T09:23:43.221Z,18.94
2023-05-09T09:26:49.475Z,19.87
2023-05-09T09:29:52.267Z,19.18
2023-05-09T09:32:59.098Z,19.26
2023-05-09T09:36:02.730Z,18.87
2023-05-09T09:39:06.568Z,18.71
2023-05-09T09:42:16.741Z,18.49
2023-05-09T09:45:22.469Z,18.60
2023-05-09T09:48:27.658Z,18.60
2023-05-09T09:51:35.496Z,18.66
2023-05-09T09:54:38.914Z,18.33
2023-05-09T09:57:48.176Z,18.87
2023-05-09T10:01:20.214Z,18.82
2023-05-09T10:04:25.805Z,18.73
2023-05-09T10:07:35.530Z,18.92
2023-05-09T10:10:40.108Z,18.81
2023-05-09T10:13:44.705Z,17.40
2023-05-09T10:16:54.591Z,18.03
2023-05-09T10:20:02.491Z,18.82
2023-05-09T10:23:08.420Z,18.94
2023-05-09T10:26:29.084Z,19.51
2023-05-09T10:29:52.287Z,19.09
2023-05-09T10:33:11.554Z,18.69
2023-05-09T10:36:24.471Z,17.84
2023-05-09T10:39:31.735Z,18.57
2023-05-09T10:42:35.663Z,19.44
2023-05-09T10:45:40.473Z,18.98
2023-05-09T10:48:48.334Z,20.12
2023-05-09T10:51:57.889Z,20.58
2023-05-09T10:55:05.226Z,19.74
2023-05-09T10:58:24.508Z,18.70
2023-05-09T11:01:38.607Z,18.47
2023-05-09T11:04:42.195Z,19.71
2023-05-09T11:07:48.239Z,19.84
2023-05-09T11:11:04.501Z,20.11
2023-05-09T11:14:11.804Z,18.94
2023-05-09T11:17:28.248Z,18.61
2023-05-09T11:20:45.488Z,18.21
2023-05-09T11:23:55.347Z,18.00
2023-05-09T11:27:00.159Z,17.88
2023-05-09T11:30:11.473Z,17.83
2023-05-09T11:33:30.393Z,19.19
2023-05-09T11:36:33.682Z,18.56
2023-05-09T11:40:00.643Z,17.69
2023-05-09T11:43:04.372Z,18.65
2023-05-09T11:46:08.176Z,18.99
2023-05-09T11:49:12.925Z,20.11
2023-05-09T11:52:20.900Z,19.22
2023-05-09T11:55:30.594Z,18.01
2023-05-09T11:58:42.549Z,18.25
2023-05-09T12:01:45.318Z,19.13
2023-05-09T12:04:50.198Z,19.10
2023-05-09T12:08:06.528Z,18.97
2023-05-09T12:11:09.960Z,18.72
2023-05-09T12:14:34.493Z,19.71
2023-05-09T12:17:44.703Z,20.01
2023-05-09T12:20:53.686Z,20.87
2023-05-09T12:23:59.542Z,19.21
2023-05-09T12:27:14.044Z,18.67
2023-05-09T12:30:18.801Z,18.37
2023-05-09T12:33:24.237Z,19.24
2023-05-09T12:36:40.134Z,19.41
2023-05-09T12:40:15.871Z,18.51
2023-05-09T12:43:19.658Z,18.69
2023-05-09T12:46:35.067Z,18.20
2023-05-09T12:49:39.135Z,18.38
2023-05-09T12:53:02.102Z,18.08
2023-05-09T12:56:15.774Z,18.21
2023-05-09T12:59:23.981Z,19.46
2023-05-09T13:02:27.869Z,18.80
2023-05-09T13:05:34.549Z,18.57
2023-05-09T13:08:38.121Z,18.35
2023-05-09T13:11:42.080Z,18.10
2023-05-09T13:14:46.985Z,18.54
2023-05-09T13:17:52.512Z,18.12
2023-05-09T13:20:56.143Z,17.97
2023-05-09T13:24:57.162Z,17.78
2023-05-09T13:29:08.569Z,17.77
2023-05-09T13:32:12.210Z,18.22
2023-05-09T13:35:18.516Z,18.25
2023-05-09T13:38:22.592Z,17.91
2023-05-09T13:41:32.292Z,18.68
2023-05-09T13:44:46.792Z,18.57
2023-05-09T13:48:00.471Z,18.60
2023-05-09T13:51:06.449Z,18.70
2023-05-09T13:54:12.909Z,19.35
2023-05-09T13:57:16.426Z,18.62
2023-05-09T14:00:22.552Z,18.35
2023-05-09T14:03:30.149Z,18.20
2023-05-09T14:06:36.704Z,18.09
2023-05-09T14:09:40.299Z,17.81
2023-05-09T14:12:47.511Z,17.73
2023-05-09T14:15:52.545Z,18.14
2023-05-09T14:18:56.342Z,18.94
2023-05-09T14:22:02.273Z,18.89
2023-05-09T14:25:11.674Z,18.40
2023-05-09T14:28:16.068Z,18.17
2023-05-09T14:31:26.626Z,18.56
2023-05-09T14:34:30.534Z,18.77
2023-05-09T14:37:41.758Z,19.10
2023-05-09T14:40:45.247Z,19.11
2023-05-09T14:43:50.047Z,18.59
2023-05-09T14:46:56.646Z,18.57
2023-05-09T14:50:01.103Z,18.56
2023-05-09T14:53:07.743Z,18.31
2023-05-09T14:56:14.188Z,18.50
2023-05-09T14:59:23.755Z,18.41
2023-05-09T15:02:27.288Z,18.12
2023-05-09T15:05:44.458Z,18.02
2023-05-09T15:08:48.397Z,17.93
2023-05-09T15:11:51.576Z,17.70
2023-05-09T15:14:55.587Z,17.73
2023-05-09T15:18:05.526Z,17.90
2023-05-09T15:21:08.691Z,17.66
2023-05-09T15:24:13.126Z,17.49
2023-05-09T15:27:15.901Z,17.41
2023-05-09T15:30:24.698Z,17.43
2023-05-09T15:33:34.953Z,17.37
2023-05-09T15:36:42.545Z,17.35
2023-05-09T15:39:52.519Z,17.28
2023-05-09T15:43:08.721Z,17.31
2023-05-09T15:46:14.113Z,17.22
2023-05-09T15:49:17.450Z,17.52
2023-05-09T15:52:38.481Z,17.93
2023-05-09T15:55:44.066Z,18.00
2023-05-09T15:58:51.620Z,18.01
2023-05-09T16:01:57.685Z,17.98
2023-05-09T16:05:07.587Z,18.00
2023-05-09T16:08:17.162Z,17.95
2023-05-09T16:11:27.013Z,17.74
2023-05-09T16:14:39.019Z,17.57
2023-05-09T16:17:45.478Z,17.40
2023-05-09T16:21:00.872Z,17.30
2023-05-09T16:24:14.709Z,17.23
2023-05-09T16:27:18.238Z,17.07
2023-05-09T16:30:27.709Z,17.07
2023-05-09T16:33:44.127Z,16.92
2023-05-09T16:36:55.500Z,16.78
2023-05-09T16:40:00.920Z,16.77
2023-05-09T16:43:07.360Z,16.69
2023-05-09T16:46:21.689Z,16.64
2023-05-09T16:49:29.083Z,16.59
2023-05-09T16:52:36.723Z,16.55
2023-05-09T16:55:41.181Z,16.52
2023-05-09T16:58:49.457Z,16.49
2023-05-09T17:01:58.195Z,16.41
2023-05-09T17:05:08.746Z,16.37
2023-05-09T17:08:15.527Z,16.40
2023-05-09T17:11:22.608Z,16.40
2023-05-09T17:14:27.805Z,16.36
2023-05-09T17:17:36.105Z,16.27
2023-05-09T17:20:45.539Z,16.23
2023-05-09T17:23:57.748Z,16.20
2023-05-09T17:27:20.888Z,16.09
2023-05-09T17:30:25.941Z,16.04
2023-05-09T17:33:29.570Z,15.99
2023-05-09T17:36:37.028Z,15.93
2023-05-09T17:39:50.456Z,15.79
2023-05-09T17:43:11.558Z,15.72
2023-05-09T17:46:19.584Z,15.69
2023-05-09T17:49:27.918Z,15.57
2023-05-09T17:52:50.401Z,15.51
2023-05-09T17:55:55.464Z,15.28
2023-05-09T17:59:11.552Z,15.36
2023-05-09T18:02:25.431Z,15.22
2023-05-09T18:05:34.946Z,15.03
2023-05-09T18:08:38.206Z,14.92
2023-05-09T18:11:54.798Z,14.84
2023-05-09T18:15:00.157Z,14.79
2023-05-09T18:18:12.906Z,14.70
2023-05-09T18:21:26.679Z,14.61
2023-05-09T18:24:44.606Z,14.51
2023-05-09T18:28:01.616Z,14.44
2023-05-09T18:31:19.539Z,14.34
2023-05-09T18:34:33.487Z,14.26
2023-05-09T18:37:43.504Z,14.15
2023-05-09T18:40:48.563Z,14.09
2023-05-09T18:44:05.472Z,14.01
2023-05-09T18:47:19.496Z,13.98
2023-05-09T18:50:38.549Z,13.94
2023-05-09T18:53:57.096Z,13.88
2023-05-09T18:57:13.983Z,13.83
2023-05-09T19:00:18.830Z,13.81
2023-05-09T19:03:36.536Z,13.81
2023-05-09T19:06:57.411Z,13.77
2023-05-09T19:10:19.502Z,13.70
2023-05-09T19:13:25.850Z,13.62
2023-05-09T19:16:34.598Z,13.58
2023-05-09T19:19:45.550Z,13.53
2023-05-09T19:22:51.538Z,13.49
2023-05-09T19:26:05.514Z,13.45
2023-05-09T19:29:10.535Z,13.41
2023-05-09T19:32:15.513Z,13.40
2023-05-09T19:35:20.289Z,13.39
2023-05-09T19:38:31.531Z,13.38
2023-05-09T19:41:39.484Z,13.43
2023-05-09T19:44:46.516Z,13.37
2023-05-09T19:47:58.489Z,13.33
2023-05-09T19:51:12.312Z,13.31
2023-05-09T19:54:20.473Z,13.29
2023-05-09T19:57:31.982Z,13.21
2023-05-09T20:00:41.432Z,13.17
2023-05-09T20:03:53.173Z,13.12
2023-05-09T20:06:59.829Z,13.09
2023-05-09T20:10:13.580Z,13.04
2023-05-09T20:13:23.857Z,12.95
2023-05-09T20:16:27.286Z,12.88
2023-05-09T20:19:34.543Z,12.83
2023-05-09T20:22:38.920Z,12.75
2023-05-09T20:25:42.137Z,12.73
2023-05-09T20:28:47.442Z,12.65
2023-05-09T20:31:53.719Z,12.63
2023-05-09T20:35:01.635Z,12.60
2023-05-09T20:38:07.706Z,12.59
2023-05-09T20:41:12.460Z,12.61
2023-05-09T20:44:17.919Z,12.57
2023-05-09T20:47:21.527Z,12.53
2023-05-09T20:50:26.503Z,12.52
2023-05-09T20:53:33.477Z,12.44
2023-05-09T20:56:36.554Z,12.37
2023-05-09T20:59:41.454Z,12.35
2023-05-09T21:02:44.657Z,12.31
2023-05-09T21:05:51.996Z,12.24
2023-05-09T21:08:54.648Z,12.22
2023-05-09T21:12:00.743Z,12.13
2023-05-09T21:15:07.492Z,12.10
2023-05-09T21:18:13.689Z,12.12
2023-05-09T21:21:19.744Z,12.05
2023-05-09T21:24:23.730Z,12.01
2023-05-09T21:27:27.096Z,11.98
2023-05-09T21:30:30.743Z,11.96
2023-05-09T21:33:33.206Z,11.88
2023-05-09T21:36:38.495Z,11.82
2023-05-09T21:39:41.877Z,11.75
2023-05-09T21:42:44.835Z,11.78
2023-05-09T21:45:47.546Z,11.77
2023-05-09T21:48:50.534Z,11.79
2023-05-09T21:51:53.630Z,11.81
2023-05-09T21:55:00.970Z,11.80
2023-05-09T21:58:04.466Z,11.82
2023-05-09T22:01:07.431Z,11.79
2023-05-09T22:04:10.554Z,11.81
2023-05-09T22:07:13.356Z,11.82
2023-05-09T22:10:16.402Z,11.79
2023-05-09T22:13:19.939Z,11.81
2023-05-09T22:16:22.968Z,11.85
2023-05-09T22:19:25.531Z,11.83
2023-05-09T22:22:28.397Z,11.86
2023-05-09T22:25:33.286Z,11.93
2023-05-09T22:28:37.820Z,11.95
2023-05-09T22:31:40.411Z,11.95
2023-05-09T22:34:46.068Z,11.91
2023-05-09T22:37:48.647Z,11.90
2023-05-09T22:40:51.621Z,11.87
2023-05-09T22:43:54.476Z,11.86
2023-05-09T22:46:59.148Z,11.82
2023-05-09T22:50:02.162Z,11.75
2023-05-09T22:53:04.998Z,11.70
2023-05-09T22:56:09.587Z,11.68
2023-05-09T22:59:14.414Z,11.66
2023-05-09T23:02:18.999Z,11.62
2023-05-09T23:05:22.116Z,11.56
2023-05-09T23:08:25.443Z,11.50
2023-05-09T23:11:31.476Z,11.47
2023-05-09T23:14:36.192Z,11.51
2023-05-09T23:17:39.196Z,11.52
2023-05-09T23:20:41.936Z,11.58
2023-05-09T23:23:45.337Z,11.68
2023-05-09T23:26:48.226Z,11.70
2023-05-09T23:29:51.569Z,11.67
2023-05-09T23:32:54.590Z,11.68
2023-05-09T23:35:57.485Z,11.69
2023-05-09T23:39:00.529Z,11.70
2023-05-09T23:42:04.181Z,11.65
2023-05-09T23:45:08.316Z,11.62
2023-05-09T23:48:11.787Z,11.53
2023-05-09T23:51:14.309Z,11.49
2023-05-09T23:54:18.364Z,11.47
2023-05-09T23:57:21.102Z,11.44
